sensor_id;sensor_type;location;lat;lon;timestamp;P1;durP1;ratioP1;P2;durP2;ratioP2
43996;SDS011;34318;45.818;15.964;2022-07-21T00:01:50;2.50;;;2.30;;
43996;SDS011;34318;45.818;15.964;2022-07-21T00:04:19;2.80;;;2.50;;
43996;SDS011;34318;45.818;15.964;2022-07-21T00:06:47;2.70;;;2.50;;
43996;SDS011;34318;45.818;15.964;2022-07-21T00:09:15;2.40;;;2.20;;
43996;SDS011;34318;45.818;15.964;2022-07-21T00:11:42;3.08;;;2.42;;
43996;SDS011;34318;45.818;15.964;2022-07-21T00:14:09;2.45;;;2.25;;
43996;SDS011;34318;45.818;15.964;2022-07-21T00:16:37;2.40;;;2.20;;
43996;SDS011;34318;45.818;15.964;2022-07-21T00:19:06;2.45;;;2.25;;
43996;SDS011;34318;45.818;15.964;2022-07-21T00:21:34;2.55;;;2.35;;
43996;SDS011;34318;45.818;15.964;2022-07-21T00:24:01;2.88;;;2.53;;
43996;SDS011;34318;45.818;15.964;2022-07-21T00:26:30;2.83;;;2.50;;
43996;SDS011;34318;45.818;15.964;2022-07-21T00:28:57;5.90;;;2.50;;
43996;SDS011;34318;45.818;15.964;2022-07-21T00:31:24;2.38;;;2.17;;
43996;SDS011;34318;45.818;15.964;2022-07-21T00:33:51;3.95;;;2.30;;
43996;SDS011;34318;45.818;15.964;2022-07-21T00:36:18;8.05;;;2.35;;
43996;SDS011;34318;45.818;15.964;2022-07-21T00:38:46;3.92;;;2.30;;
43996;SDS011;34318;45.818;15.964;2022-07-21T00:41:13;3.72;;;2.42;;
43996;SDS011;34318;45.818;15.964;2022-07-21T00:43:40;4.60;;;2.47;;
43996;SDS011;34318;45.818;15.964;2022-07-21T00:46:07;5.32;;;2.63;;
43996;SDS011;34318;45.818;15.964;2022-07-21T00:48:34;2.78;;;2.28;;
43996;SDS011;34318;45.818;15.964;2022-07-21T00:51:01;3.67;;;2.55;;
43996;SDS011;34318;45.818;15.964;2022-07-21T00:53:28;3.20;;;2.50;;
43996;SDS011;34318;45.818;15.964;2022-07-21T00:55:55;2.42;;;2.22;;
43996;SDS011;34318;45.818;15.964;2022-07-21T00:58:23;2.03;;;1.92;;
43996;SDS011;34318;45.818;15.964;2022-07-21T01:00:50;2.92;;;2.60;;
43996;SDS011;34318;45.818;15.964;2022-07-21T01:03:17;3.38;;;2.17;;
43996;SDS011;34318;45.818;15.964;2022-07-21T01:05:44;4.43;;;2.28;;
43996;SDS011;34318;45.818;15.964;2022-07-21T01:08:11;3.92;;;2.67;;
43996;SDS011;34318;45.818;15.964;2022-07-21T01:10:38;2.40;;;2.20;;
43996;SDS011;34318;45.818;15.964;2022-07-21T01:13:06;2.38;;;2.17;;
43996;SDS011;34318;45.818;15.964;2022-07-21T01:15:33;2.50;;;2.30;;
43996;SDS011;34318;45.818;15.964;2022-07-21T01:18:00;2.88;;;2.13;;
43996;SDS011;34318;45.818;15.964;2022-07-21T01:20:27;3.58;;;2.30;;
43996;SDS011;34318;45.818;15.964;2022-07-21T01:22:59;2.72;;;2.40;;
43996;SDS011;34318;45.818;15.964;2022-07-21T01:25:26;2.30;;;2.10;;
43996;SDS011;34318;45.818;15.964;2022-07-21T01:27:53;2.38;;;2.17;;
43996;SDS011;34318;45.818;15.964;2022-07-21T01:30:21;2.30;;;2.10;;
43996;SDS011;34318;45.818;15.964;2022-07-21T01:32:48;2.90;;;2.58;;
43996;SDS011;34318;45.818;15.964;2022-07-21T01:35:15;3.50;;;2.35;;
43996;SDS011;34318;45.818;15.964;2022-07-21T01:37:43;4.15;;;2.67;;
43996;SDS011;34318;45.818;15.964;2022-07-21T01:40:11;2.47;;;2.28;;
43996;SDS011;34318;45.818;15.964;2022-07-21T01:42:58;3.33;;;2.50;;
43996;SDS011;34318;45.818;15.964;2022-07-21T01:45:26;2.53;;;2.33;;
43996;SDS011;34318;45.818;15.964;2022-07-21T01:47:53;3.22;;;2.50;;
43996;SDS011;34318;45.818;15.964;2022-07-21T01:50:22;2.70;;;2.50;;
43996;SDS011;34318;45.818;15.964;2022-07-21T01:52:53;2.70;;;2.50;;
43996;SDS011;34318;45.818;15.964;2022-07-21T01:55:22;2.67;;;2.47;;
43996;SDS011;34318;45.818;15.964;2022-07-21T01:57:50;2.88;;;2.58;;
43996;SDS011;34318;45.818;15.964;2022-07-21T02:00:17;2.50;;;2.30;;
43996;SDS011;34318;45.818;15.964;2022-07-21T02:02:44;2.58;;;2.38;;
43996;SDS011;34318;45.818;15.964;2022-07-21T02:05:11;3.10;;;2.50;;
43996;SDS011;34318;45.818;15.964;2022-07-21T02:07:38;4.68;;;2.50;;
43996;SDS011;34318;45.818;15.964;2022-07-21T02:10:05;3.22;;;2.55;;
43996;SDS011;34318;45.818;15.964;2022-07-21T02:12:32;2.83;;;2.47;;
43996;SDS011;34318;45.818;15.964;2022-07-21T02:14:59;3.03;;;2.63;;
43996;SDS011;34318;45.818;15.964;2022-07-21T02:17:27;2.88;;;2.55;;
43996;SDS011;34318;45.818;15.964;2022-07-21T02:19:54;3.22;;;2.55;;
43996;SDS011;34318;45.818;15.964;2022-07-21T02:22:20;3.03;;;2.53;;
43996;SDS011;34318;45.818;15.964;2022-07-21T02:24:47;3.08;;;2.80;;
43996;SDS011;34318;45.818;15.964;2022-07-21T02:27:14;3.15;;;2.50;;
43996;SDS011;34318;45.818;15.964;2022-07-21T02:29:41;2.75;;;2.55;;
43996;SDS011;34318;45.818;15.964;2022-07-21T02:32:08;3.53;;;2.53;;
43996;SDS011;34318;45.818;15.964;2022-07-21T02:34:35;2.63;;;2.42;;
43996;SDS011;34318;45.818;15.964;2022-07-21T02:37:02;2.78;;;2.53;;
43996;SDS011;34318;45.818;15.964;2022-07-21T02:39:29;2.67;;;2.22;;
43996;SDS011;34318;45.818;15.964;2022-07-21T02:41:56;3.22;;;2.72;;
43996;SDS011;34318;45.818;15.964;2022-07-21T02:44:22;2.90;;;2.63;;
43996;SDS011;34318;45.818;15.964;2022-07-21T02:46:49;2.60;;;2.40;;
43996;SDS011;34318;45.818;15.964;2022-07-21T02:49:16;2.65;;;2.45;;
43996;SDS011;34318;45.818;15.964;2022-07-21T02:51:43;3.80;;;2.90;;
43996;SDS011;34318;45.818;15.964;2022-07-21T02:54:10;2.67;;;2.47;;
43996;SDS011;34318;45.818;15.964;2022-07-21T02:56:37;4.10;;;2.75;;
43996;SDS011;34318;45.818;15.964;2022-07-21T02:59:05;2.63;;;2.42;;
43996;SDS011;34318;45.818;15.964;2022-07-21T03:01:31;4.60;;;2.83;;
43996;SDS011;34318;45.818;15.964;2022-07-21T03:03:58;3.03;;;2.78;;
43996;SDS011;34318;45.818;15.964;2022-07-21T03:06:25;3.08;;;2.78;;
43996;SDS011;34318;45.818;15.964;2022-07-21T03:08:52;3.15;;;2.60;;
43996;SDS011;34318;45.818;15.964;2022-07-21T03:11:20;4.75;;;2.85;;
43996;SDS011;34318;45.818;15.964;2022-07-21T03:13:47;3.70;;;2.55;;
43996;SDS011;34318;45.818;15.964;2022-07-21T03:16:13;3.13;;;2.80;;
43996;SDS011;34318;45.818;15.964;2022-07-21T03:18:40;3.60;;;2.53;;
43996;SDS011;34318;45.818;15.964;2022-07-21T03:21:08;4.47;;;3.03;;
43996;SDS011;34318;45.818;15.964;2022-07-21T03:23:34;3.55;;;2.75;;
43996;SDS011;34318;45.818;15.964;2022-07-21T03:26:01;3.58;;;2.80;;
43996;SDS011;34318;45.818;15.964;2022-07-21T03:28:28;2.72;;;2.53;;
43996;SDS011;34318;45.818;15.964;2022-07-21T03:30:55;3.50;;;3.05;;
43996;SDS011;34318;45.818;15.964;2022-07-21T03:33:22;3.17;;;2.80;;
43996;SDS011;34318;45.818;15.964;2022-07-21T03:35:49;5.05;;;3.53;;
43996;SDS011;34318;45.818;15.964;2022-07-21T03:38:16;3.60;;;3.30;;
43996;SDS011;34318;45.818;15.964;2022-07-21T03:40:43;3.22;;;2.92;;
43996;SDS011;34318;45.818;15.964;2022-07-21T03:43:10;2.80;;;2.60;;
43996;SDS011;34318;45.818;15.964;2022-07-21T03:45:37;3.67;;;2.65;;
43996;SDS011;34318;45.818;15.964;2022-07-21T03:48:04;3.25;;;2.90;;
43996;SDS011;34318;45.818;15.964;2022-07-21T03:50:33;3.35;;;2.83;;
43996;SDS011;34318;45.818;15.964;2022-07-21T03:53:00;3.70;;;2.70;;
43996;SDS011;34318;45.818;15.964;2022-07-21T03:55:28;2.90;;;2.58;;
43996;SDS011;34318;45.818;15.964;2022-07-21T03:57:57;4.82;;;3.08;;
43996;SDS011;34318;45.818;15.964;2022-07-21T04:00:30;4.38;;;3.22;;
43996;SDS011;34318;45.818;15.964;2022-07-21T04:03:02;5.82;;;3.33;;
43996;SDS011;34318;45.818;15.964;2022-07-21T04:05:31;3.45;;;3.10;;
43996;SDS011;34318;45.818;15.964;2022-07-21T04:07:58;3.30;;;3.00;;
43996;SDS011;34318;45.818;15.964;2022-07-21T04:10:26;2.67;;;2.47;;
43996;SDS011;34318;45.818;15.964;2022-07-21T04:12:55;3.03;;;2.83;;
43996;SDS011;34318;45.818;15.964;2022-07-21T04:15:24;4.07;;;2.90;;
43996;SDS011;34318;45.818;15.964;2022-07-21T04:17:51;3.80;;;3.10;;
43996;SDS011;34318;45.818;15.964;2022-07-21T04:20:19;3.35;;;2.90;;
43996;SDS011;34318;45.818;15.964;2022-07-21T04:22:47;3.13;;;2.83;;
43996;SDS011;34318;45.818;15.964;2022-07-21T04:25:15;3.72;;;3.38;;
43996;SDS011;34318;45.818;15.964;2022-07-21T04:27:43;3.30;;;2.75;;
43996;SDS011;34318;45.818;15.964;2022-07-21T04:30:12;3.65;;;3.08;;
43996;SDS011;34318;45.818;15.964;2022-07-21T04:32:43;3.20;;;2.92;;
43996;SDS011;34318;45.818;15.964;2022-07-21T04:35:10;5.00;;;3.17;;
43996;SDS011;34318;45.818;15.964;2022-07-21T04:37:38;3.50;;;2.70;;
43996;SDS011;34318;45.818;15.964;2022-07-21T04:40:05;4.47;;;3.30;;
43996;SDS011;34318;45.818;15.964;2022-07-21T04:42:33;3.20;;;2.90;;
43996;SDS011;34318;45.818;15.964;2022-07-21T04:45:01;4.60;;;2.70;;
43996;SDS011;34318;45.818;15.964;2022-07-21T04:47:29;4.88;;;3.33;;
43996;SDS011;34318;45.818;15.964;2022-07-21T04:49:56;5.18;;;3.10;;
43996;SDS011;34318;45.818;15.964;2022-07-21T04:52:23;3.42;;;2.90;;
43996;SDS011;34318;45.818;15.964;2022-07-21T04:54:50;2.83;;;2.63;;
43996;SDS011;34318;45.818;15.964;2022-07-21T04:57:17;4.72;;;2.80;;
43996;SDS011;34318;45.818;15.964;2022-07-21T04:59:43;3.85;;;2.80;;
43996;SDS011;34318;45.818;15.964;2022-07-21T05:02:10;7.60;;;3.42;;
43996;SDS011;34318;45.818;15.964;2022-07-21T05:04:37;6.55;;;3.22;;
43996;SDS011;34318;45.818;15.964;2022-07-21T05:07:04;4.90;;;3.15;;
43996;SDS011;34318;45.818;15.964;2022-07-21T05:09:31;2.88;;;2.67;;
43996;SDS011;34318;45.818;15.964;2022-07-21T05:11:58;3.38;;;3.05;;
43996;SDS011;34318;45.818;15.964;2022-07-21T05:14:25;4.72;;;3.00;;
43996;SDS011;34318;45.818;15.964;2022-07-21T05:16:52;4.55;;;3.20;;
43996;SDS011;34318;45.818;15.964;2022-07-21T05:19:19;3.30;;;3.00;;
43996;SDS011;34318;45.818;15.964;2022-07-21T05:21:45;4.75;;;2.70;;
43996;SDS011;34318;45.818;15.964;2022-07-21T05:24:13;5.25;;;3.22;;
43996;SDS011;34318;45.818;15.964;2022-07-21T05:26:41;3.17;;;2.53;;
43996;SDS011;34318;45.818;15.964;2022-07-21T05:29:08;4.32;;;2.90;;
43996;SDS011;34318;45.818;15.964;2022-07-21T05:31:34;3.15;;;2.85;;
43996;SDS011;34318;45.818;15.964;2022-07-21T05:34:01;3.50;;;3.00;;
43996;SDS011;34318;45.818;15.964;2022-07-21T05:36:28;4.40;;;3.67;;
43996;SDS011;34318;45.818;15.964;2022-07-21T05:38:55;6.13;;;2.90;;
43996;SDS011;34318;45.818;15.964;2022-07-21T05:41:22;3.70;;;3.08;;
43996;SDS011;34318;45.818;15.964;2022-07-21T05:43:49;4.93;;;3.72;;
43996;SDS011;34318;45.818;15.964;2022-07-21T05:46:18;4.75;;;3.45;;
43996;SDS011;34318;45.818;15.964;2022-07-21T05:48:45;4.82;;;3.30;;
43996;SDS011;34318;45.818;15.964;2022-07-21T05:51:12;6.40;;;3.72;;
43996;SDS011;34318;45.818;15.964;2022-07-21T05:53:44;6.10;;;3.70;;
43996;SDS011;34318;45.818;15.964;2022-07-21T05:56:11;8.80;;;4.07;;
43996;SDS011;34318;45.818;15.964;2022-07-21T05:58:39;6.93;;;4.10;;
43996;SDS011;34318;45.818;15.964;2022-07-21T06:01:06;7.68;;;4.07;;
43996;SDS011;34318;45.818;15.964;2022-07-21T06:03:39;11.75;;;4.10;;
43996;SDS011;34318;45.818;15.964;2022-07-21T06:06:08;4.82;;;3.55;;
43996;SDS011;34318;45.818;15.964;2022-07-21T06:08:37;4.93;;;4.07;;
43996;SDS011;34318;45.818;15.964;2022-07-21T06:11:05;7.53;;;4.10;;
43996;SDS011;34318;45.818;15.964;2022-07-21T06:13:34;6.70;;;4.30;;
43996;SDS011;34318;45.818;15.964;2022-07-21T06:16:01;5.55;;;4.25;;
43996;SDS011;34318;45.818;15.964;2022-07-21T06:18:31;6.45;;;4.53;;
43996;SDS011;34318;45.818;15.964;2022-07-21T06:20:59;10.60;;;4.38;;
43996;SDS011;34318;45.818;15.964;2022-07-21T06:23:26;6.10;;;4.15;;
43996;SDS011;34318;45.818;15.964;2022-07-21T06:25:54;5.47;;;3.95;;
43996;SDS011;34318;45.818;15.964;2022-07-21T06:28:21;6.53;;;4.18;;
43996;SDS011;34318;45.818;15.964;2022-07-21T06:30:49;7.13;;;3.88;;
43996;SDS011;34318;45.818;15.964;2022-07-21T06:33:16;6.97;;;4.50;;
43996;SDS011;34318;45.818;15.964;2022-07-21T06:35:43;7.25;;;4.40;;
43996;SDS011;34318;45.818;15.964;2022-07-21T06:38:10;8.57;;;4.30;;
43996;SDS011;34318;45.818;15.964;2022-07-21T06:40:40;7.18;;;3.92;;
43996;SDS011;34318;45.818;15.964;2022-07-21T06:43:08;6.47;;;4.50;;
43996;SDS011;34318;45.818;15.964;2022-07-21T06:45:54;5.85;;;4.35;;
43996;SDS011;34318;45.818;15.964;2022-07-21T06:48:23;5.55;;;4.53;;
43996;SDS011;34318;45.818;15.964;2022-07-21T06:50:51;5.63;;;3.90;;
43996;SDS011;34318;45.818;15.964;2022-07-21T06:53:19;4.97;;;3.88;;
43996;SDS011;34318;45.818;15.964;2022-07-21T06:55:45;7.22;;;4.25;;
43996;SDS011;34318;45.818;15.964;2022-07-21T06:58:14;5.60;;;3.67;;
43996;SDS011;34318;45.818;15.964;2022-07-21T07:00:43;5.88;;;4.05;;
43996;SDS011;34318;45.818;15.964;2022-07-21T07:03:11;3.90;;;3.53;;
43996;SDS011;34318;45.818;15.964;2022-07-21T07:05:39;6.22;;;4.10;;
43996;SDS011;34318;45.818;15.964;2022-07-21T07:08:06;7.57;;;4.25;;
43996;SDS011;34318;45.818;15.964;2022-07-21T07:10:37;5.00;;;3.92;;
43996;SDS011;34318;45.818;15.964;2022-07-21T07:13:05;4.20;;;3.80;;
43996;SDS011;34318;45.818;15.964;2022-07-21T07:15:52;5.43;;;4.50;;
43996;SDS011;34318;45.818;15.964;2022-07-21T07:18:19;6.28;;;4.15;;
43996;SDS011;34318;45.818;15.964;2022-07-21T07:20:48;6.22;;;4.60;;
43996;SDS011;34318;45.818;15.964;2022-07-21T07:23:15;8.75;;;4.78;;
43996;SDS011;34318;45.818;15.964;2022-07-21T07:25:44;7.22;;;4.68;;
43996;SDS011;34318;45.818;15.964;2022-07-21T07:28:11;5.32;;;4.70;;
43996;SDS011;34318;45.818;15.964;2022-07-21T07:30:38;9.63;;;4.60;;
43996;SDS011;34318;45.818;15.964;2022-07-21T07:33:05;10.00;;;5.25;;
43996;SDS011;34318;45.818;15.964;2022-07-21T07:35:33;14.98;;;5.65;;
43996;SDS011;34318;45.818;15.964;2022-07-21T07:37:59;9.63;;;6.25;;
43996;SDS011;34318;45.818;15.964;2022-07-21T07:40:27;9.45;;;6.15;;
43996;SDS011;34318;45.818;15.964;2022-07-21T07:42:54;8.23;;;6.53;;
43996;SDS011;34318;45.818;15.964;2022-07-21T07:45:20;13.60;;;6.82;;
43996;SDS011;34318;45.818;15.964;2022-07-21T07:47:48;13.73;;;8.00;;
43996;SDS011;34318;45.818;15.964;2022-07-21T07:50:15;14.98;;;9.60;;
43996;SDS011;34318;45.818;15.964;2022-07-21T07:52:43;15.10;;;11.70;;
43996;SDS011;34318;45.818;15.964;2022-07-21T07:55:11;15.10;;;11.32;;
43996;SDS011;34318;45.818;15.964;2022-07-21T07:57:38;14.73;;;11.45;;
43996;SDS011;34318;45.818;15.964;2022-07-21T08:00:08;18.67;;;12.60;;
43996;SDS011;34318;45.818;15.964;2022-07-21T08:02:58;12.93;;;11.30;;
43996;SDS011;34318;45.818;15.964;2022-07-21T08:05:25;17.65;;;12.77;;
43996;SDS011;34318;45.818;15.964;2022-07-21T08:07:51;15.45;;;11.80;;
43996;SDS011;34318;45.818;15.964;2022-07-21T08:10:19;15.70;;;11.13;;
43996;SDS011;34318;45.818;15.964;2022-07-21T08:13:05;17.60;;;12.45;;
43996;SDS011;34318;45.818;15.964;2022-07-21T08:15:35;16.60;;;13.15;;
43996;SDS011;34318;45.818;15.964;2022-07-21T08:18:02;16.52;;;13.93;;
43996;SDS011;34318;45.818;15.964;2022-07-21T08:20:30;21.40;;;14.38;;
43996;SDS011;34318;45.818;15.964;2022-07-21T08:22:57;16.63;;;12.52;;
43996;SDS011;34318;45.818;15.964;2022-07-21T08:25:23;17.38;;;13.95;;
43996;SDS011;34318;45.818;15.964;2022-07-21T08:27:50;18.52;;;14.93;;
43996;SDS011;34318;45.818;15.964;2022-07-21T08:30:17;22.35;;;16.20;;
43996;SDS011;34318;45.818;15.964;2022-07-21T08:32:47;21.60;;;16.42;;
43996;SDS011;34318;45.818;15.964;2022-07-21T08:35:13;23.05;;;15.70;;
43996;SDS011;34318;45.818;15.964;2022-07-21T08:37:40;20.60;;;15.20;;
43996;SDS011;34318;45.818;15.964;2022-07-21T08:40:09;23.52;;;14.95;;
43996;SDS011;34318;45.818;15.964;2022-07-21T08:42:37;19.60;;;14.68;;
43996;SDS011;34318;45.818;15.964;2022-07-21T08:45:07;17.83;;;14.15;;
43996;SDS011;34318;45.818;15.964;2022-07-21T08:47:34;19.35;;;15.00;;
43996;SDS011;34318;45.818;15.964;2022-07-21T08:52:36;21.80;;;13.20;;
43996;SDS011;34318;45.818;15.964;2022-07-21T08:55:03;16.85;;;15.07;;
43996;SDS011;34318;45.818;15.964;2022-07-21T08:57:31;17.23;;;13.82;;
43996;SDS011;34318;45.818;15.964;2022-07-21T08:59:58;17.40;;;13.68;;
43996;SDS011;34318;45.818;15.964;2022-07-21T09:02:29;18.83;;;14.25;;
43996;SDS011;34318;45.818;15.964;2022-07-21T09:04:58;18.90;;;13.48;;
43996;SDS011;34318;45.818;15.964;2022-07-21T09:10:33;23.63;;;14.10;;
43996;SDS011;34318;45.818;15.964;2022-07-21T09:13:03;17.40;;;13.32;;
43996;SDS011;34318;45.818;15.964;2022-07-21T09:15:33;16.80;;;12.05;;
43996;SDS011;34318;45.818;15.964;2022-07-21T09:20:37;19.92;;;13.48;;
43996;SDS011;34318;45.818;15.964;2022-07-21T09:23:13;25.90;;;14.73;;
43996;SDS011;34318;45.818;15.964;2022-07-21T09:25:43;24.10;;;15.95;;
43996;SDS011;34318;45.818;15.964;2022-07-21T09:28:29;28.75;;;15.38;;
43996;SDS011;34318;45.818;15.964;2022-07-21T09:30:59;25.50;;;15.85;;
43996;SDS011;34318;45.818;15.964;2022-07-21T09:38:44;24.55;;;16.35;;
43996;SDS011;34318;45.818;15.964;2022-07-21T09:41:25;23.73;;;16.92;;
43996;SDS011;34318;45.818;15.964;2022-07-21T09:43:54;19.73;;;15.98;;
43996;SDS011;34318;45.818;15.964;2022-07-21T09:46:27;23.42;;;16.17;;
43996;SDS011;34318;45.818;15.964;2022-07-21T09:48:57;22.77;;;16.58;;
43996;SDS011;34318;45.818;15.964;2022-07-21T09:51:47;20.17;;;14.52;;
43996;SDS011;34318;45.818;15.964;2022-07-21T09:54:15;22.27;;;15.35;;
43996;SDS011;34318;45.818;15.964;2022-07-21T09:56:43;22.40;;;15.23;;
43996;SDS011;34318;45.818;15.964;2022-07-21T09:59:13;22.90;;;15.20;;
43996;SDS011;34318;45.818;15.964;2022-07-21T10:01:41;16.85;;;14.27;;
43996;SDS011;34318;45.818;15.964;2022-07-21T10:04:08;18.25;;;13.75;;
43996;SDS011;34318;45.818;15.964;2022-07-21T10:06:37;24.98;;;16.08;;
43996;SDS011;34318;45.818;15.964;2022-07-21T10:09:06;22.10;;;15.35;;
43996;SDS011;34318;45.818;15.964;2022-07-21T10:11:36;17.85;;;13.77;;
43996;SDS011;34318;45.818;15.964;2022-07-21T10:14:08;16.23;;;12.50;;
43996;SDS011;34318;45.818;15.964;2022-07-21T10:16:38;16.60;;;14.23;;
43996;SDS011;34318;45.818;15.964;2022-07-21T10:19:24;16.38;;;12.93;;
43996;SDS011;34318;45.818;15.964;2022-07-21T10:24:34;17.85;;;12.77;;
43996;SDS011;34318;45.818;15.964;2022-07-21T10:27:03;16.95;;;14.20;;
43996;SDS011;34318;45.818;15.964;2022-07-21T10:29:49;18.13;;;13.18;;
43996;SDS011;34318;45.818;15.964;2022-07-21T10:32:25;19.02;;;13.75;;
43996;SDS011;34318;45.818;15.964;2022-07-21T10:34:55;20.25;;;13.93;;
43996;SDS011;34318;45.818;15.964;2022-07-21T10:40:06;16.88;;;12.18;;
43996;SDS011;34318;45.818;15.964;2022-07-21T10:42:33;17.95;;;13.52;;
43996;SDS011;34318;45.818;15.964;2022-07-21T10:45:01;18.10;;;13.05;;
43996;SDS011;34318;45.818;15.964;2022-07-21T10:47:42;15.45;;;11.90;;
43996;SDS011;34318;45.818;15.964;2022-07-21T10:50:12;17.30;;;12.40;;
43996;SDS011;34318;45.818;15.964;2022-07-21T10:53:03;18.67;;;13.68;;
43996;SDS011;34318;45.818;15.964;2022-07-21T10:55:38;15.38;;;12.70;;
43996;SDS011;34318;45.818;15.964;2022-07-21T10:58:15;13.50;;;10.77;;
43996;SDS011;34318;45.818;15.964;2022-07-21T11:00:52;14.05;;;12.55;;
43996;SDS011;34318;45.818;15.964;2022-07-21T11:03:24;16.08;;;13.60;;
43996;SDS011;34318;45.818;15.964;2022-07-21T11:08:36;13.40;;;11.10;;
43996;SDS011;34318;45.818;15.964;2022-07-21T11:22:10;12.98;;;10.70;;
43996;SDS011;34318;45.818;15.964;2022-07-21T11:24:46;12.27;;;10.77;;
43996;SDS011;34318;45.818;15.964;2022-07-21T11:27:16;16.45;;;11.20;;
43996;SDS011;34318;45.818;15.964;2022-07-21T11:29:50;14.40;;;12.23;;
43996;SDS011;34318;45.818;15.964;2022-07-21T11:32:20;14.32;;;11.60;;
43996;SDS011;34318;45.818;15.964;2022-07-21T11:34:51;13.00;;;11.05;;
43996;SDS011;34318;45.818;15.964;2022-07-21T11:37:26;15.02;;;11.73;;
43996;SDS011;34318;45.818;15.964;2022-07-21T11:40:03;16.75;;;12.82;;
43996;SDS011;34318;45.818;15.964;2022-07-21T11:42:43;17.25;;;11.27;;
43996;SDS011;34318;45.818;15.964;2022-07-21T11:45:11;13.50;;;10.98;;
43996;SDS011;34318;45.818;15.964;2022-07-21T11:47:40;13.57;;;10.73;;
43996;SDS011;34318;45.818;15.964;2022-07-21T11:50:16;15.57;;;11.32;;
43996;SDS011;34318;45.818;15.964;2022-07-21T11:52:43;16.67;;;11.60;;
43996;SDS011;34318;45.818;15.964;2022-07-21T11:55:10;15.50;;;12.18;;
43996;SDS011;34318;45.818;15.964;2022-07-21T11:57:44;18.40;;;13.13;;
43996;SDS011;34318;45.818;15.964;2022-07-21T12:00:12;17.15;;;11.38;;
43996;SDS011;34318;45.818;15.964;2022-07-21T12:02:42;18.98;;;14.18;;
43996;SDS011;34318;45.818;15.964;2022-07-21T12:05:10;16.77;;;13.10;;
43996;SDS011;34318;45.818;15.964;2022-07-21T12:07:40;17.73;;;12.90;;
43996;SDS011;34318;45.818;15.964;2022-07-21T12:12:43;17.20;;;12.82;;
43996;SDS011;34318;45.818;15.964;2022-07-21T12:15:19;13.93;;;12.05;;
43996;SDS011;34318;45.818;15.964;2022-07-21T12:17:58;12.95;;;10.15;;
43996;SDS011;34318;45.818;15.964;2022-07-21T12:22:55;20.08;;;11.02;;
43996;SDS011;34318;45.818;15.964;2022-07-21T12:25:34;14.55;;;10.40;;
43996;SDS011;34318;45.818;15.964;2022-07-21T12:28:03;13.93;;;10.75;;
43996;SDS011;34318;45.818;15.964;2022-07-21T12:30:41;11.93;;;9.32;;
43996;SDS011;34318;45.818;15.964;2022-07-21T12:33:20;14.02;;;10.05;;
43996;SDS011;34318;45.818;15.964;2022-07-21T12:36:00;13.88;;;10.32;;
43996;SDS011;34318;45.818;15.964;2022-07-21T12:38:45;15.48;;;10.32;;
43996;SDS011;34318;45.818;15.964;2022-07-21T12:41:15;14.05;;;9.20;;
43996;SDS011;34318;45.818;15.964;2022-07-21T12:43:57;13.07;;;9.85;;
43996;SDS011;34318;45.818;15.964;2022-07-21T12:49:07;10.55;;;8.25;;
43996;SDS011;34318;45.818;15.964;2022-07-21T12:51:37;13.93;;;8.93;;
43996;SDS011;34318;45.818;15.964;2022-07-21T12:54:05;13.55;;;8.80;;
43996;SDS011;34318;45.818;15.964;2022-07-21T12:56:33;11.13;;;8.82;;
43996;SDS011;34318;45.818;15.964;2022-07-21T12:59:01;13.82;;;9.63;;
43996;SDS011;34318;45.818;15.964;2022-07-21T13:01:29;13.45;;;9.98;;
43996;SDS011;34318;45.818;15.964;2022-07-21T13:04:03;14.68;;;8.85;;
43996;SDS011;34318;45.818;15.964;2022-07-21T13:06:30;11.23;;;8.27;;
43996;SDS011;34318;45.818;15.964;2022-07-21T13:08:58;14.50;;;9.13;;
43996;SDS011;34318;45.818;15.964;2022-07-21T13:11:25;14.13;;;9.88;;
43996;SDS011;34318;45.818;15.964;2022-07-21T13:13:52;10.52;;;7.82;;
43996;SDS011;34318;45.818;15.964;2022-07-21T13:16:20;14.43;;;9.13;;
43996;SDS011;34318;45.818;15.964;2022-07-21T13:18:49;13.60;;;8.57;;
43996;SDS011;34318;45.818;15.964;2022-07-21T13:21:18;13.77;;;9.15;;
43996;SDS011;34318;45.818;15.964;2022-07-21T13:23:45;11.50;;;8.50;;
43996;SDS011;34318;45.818;15.964;2022-07-21T13:26:12;12.90;;;8.30;;
43996;SDS011;34318;45.818;15.964;2022-07-21T13:28:40;12.70;;;8.48;;
43996;SDS011;34318;45.818;15.964;2022-07-21T13:31:07;12.35;;;8.45;;
43996;SDS011;34318;45.818;15.964;2022-07-21T13:33:36;10.00;;;8.30;;
43996;SDS011;34318;45.818;15.964;2022-07-21T13:36:04;14.57;;;8.35;;
43996;SDS011;34318;45.818;15.964;2022-07-21T13:38:32;12.25;;;8.80;;
43996;SDS011;34318;45.818;15.964;2022-07-21T13:40:59;9.60;;;8.10;;
43996;SDS011;34318;45.818;15.964;2022-07-21T13:43:46;9.85;;;8.27;;
43996;SDS011;34318;45.818;15.964;2022-07-21T13:46:13;12.45;;;9.10;;
43996;SDS011;34318;45.818;15.964;2022-07-21T13:48:41;13.57;;;8.50;;
43996;SDS011;34318;45.818;15.964;2022-07-21T13:51:14;16.67;;;9.82;;
43996;SDS011;34318;45.818;15.964;2022-07-21T13:53:43;12.82;;;9.10;;
43996;SDS011;34318;45.818;15.964;2022-07-21T13:56:11;12.40;;;8.50;;
43996;SDS011;34318;45.818;15.964;2022-07-21T13:58:39;14.35;;;10.30;;
43996;SDS011;34318;45.818;15.964;2022-07-21T14:01:08;13.02;;;9.18;;
43996;SDS011;34318;45.818;15.964;2022-07-21T14:03:37;16.52;;;10.18;;
43996;SDS011;34318;45.818;15.964;2022-07-21T14:06:04;13.10;;;9.30;;
43996;SDS011;34318;45.818;15.964;2022-07-21T14:08:32;10.82;;;8.90;;
43996;SDS011;34318;45.818;15.964;2022-07-21T14:10:59;14.02;;;9.70;;
43996;SDS011;34318;45.818;15.964;2022-07-21T14:13:25;11.88;;;8.70;;
43996;SDS011;34318;45.818;15.964;2022-07-21T14:15:53;15.32;;;9.23;;
43996;SDS011;34318;45.818;15.964;2022-07-21T14:18:20;15.80;;;9.57;;
43996;SDS011;34318;45.818;15.964;2022-07-21T14:20:47;14.30;;;10.45;;
43996;SDS011;34318;45.818;15.964;2022-07-21T14:23:18;16.52;;;10.55;;
43996;SDS011;34318;45.818;15.964;2022-07-21T14:25:47;16.23;;;10.70;;
43996;SDS011;34318;45.818;15.964;2022-07-21T14:28:15;14.25;;;10.50;;
43996;SDS011;34318;45.818;15.964;2022-07-21T14:30:43;13.20;;;9.52;;
43996;SDS011;34318;45.818;15.964;2022-07-21T14:33:11;22.45;;;12.45;;
43996;SDS011;34318;45.818;15.964;2022-07-21T14:35:38;14.23;;;10.73;;
43996;SDS011;34318;45.818;15.964;2022-07-21T14:38:05;16.27;;;9.98;;
43996;SDS011;34318;45.818;15.964;2022-07-21T14:40:32;17.17;;;10.35;;
43996;SDS011;34318;45.818;15.964;2022-07-21T14:43:00;12.63;;;9.05;;
43996;SDS011;34318;45.818;15.964;2022-07-21T14:45:27;14.80;;;9.68;;
43996;SDS011;34318;45.818;15.964;2022-07-21T14:47:54;10.98;;;8.93;;
43996;SDS011;34318;45.818;15.964;2022-07-21T14:50:24;14.82;;;10.02;;
43996;SDS011;34318;45.818;15.964;2022-07-21T14:52:56;17.90;;;10.32;;
43996;SDS011;34318;45.818;15.964;2022-07-21T14:55:24;13.63;;;9.20;;
43996;SDS011;34318;45.818;15.964;2022-07-21T14:57:54;15.38;;;9.68;;
43996;SDS011;34318;45.818;15.964;2022-07-21T15:00:21;14.13;;;9.43;;
43996;SDS011;34318;45.818;15.964;2022-07-21T15:02:52;17.10;;;9.35;;
43996;SDS011;34318;45.818;15.964;2022-07-21T15:05:21;14.50;;;10.15;;
43996;SDS011;34318;45.818;15.964;2022-07-21T15:07:48;14.88;;;9.98;;
43996;SDS011;34318;45.818;15.964;2022-07-21T15:10:16;13.25;;;9.60;;
43996;SDS011;34318;45.818;15.964;2022-07-21T15:12:43;10.90;;;8.70;;
43996;SDS011;34318;45.818;15.964;2022-07-21T15:15:10;12.15;;;8.07;;